createdAt,value
2022-09-18T00:01:15.095Z,92347.75
2022-09-18T00:03:59.474Z,92348.69
2022-09-18T00:06:45.323Z,92345.03
2022-09-18T00:09:28.133Z,92344.91
2022-09-18T00:12:11.474Z,92354.19
2022-09-18T00:14:54.554Z,92351.47
2022-09-18T00:17:38.445Z,92348.41
2022-09-18T00:20:21.354Z,92356.38
2022-09-18T00:23:05.604Z,92352.38
2022-09-18T00:25:48.428Z,92359.88
2022-09-18T00:28:31.221Z,92355.88
2022-09-18T00:31:16.136Z,92367.72
2022-09-18T00:34:00.251Z,92362.38
2022-09-18T00:36:43.887Z,92359.44
2022-09-18T00:39:28.975Z,92368.22
2022-09-18T00:42:13.259Z,92367.31
2022-09-18T00:44:56.103Z,92377.41
2022-09-18T00:47:45.799Z,92367.44
2022-09-18T00:50:28.817Z,92367.88
2022-09-18T00:53:12.339Z,92364.00
2022-09-18T00:55:58.641Z,92372.53
2022-09-18T00:58:42.164Z,92367.72
2022-09-18T01:01:26.389Z,92369.84
2022-09-18T01:04:12.822Z,92373.44
2022-09-18T01:07:04.919Z,92372.34
2022-09-18T01:09:59.440Z,92381.63
2022-09-18T01:12:51.726Z,92385.00
2022-09-18T01:15:42.492Z,92374.50
2022-09-18T01:18:36.038Z,92377.22
2022-09-18T01:21:24.223Z,92379.50
2022-09-18T01:24:35.340Z,92371.94
2022-09-18T01:27:27.238Z,92381.94
2022-09-18T01:30:13.786Z,92383.00
2022-09-18T01:33:00.761Z,92385.84
2022-09-18T01:35:50.897Z,92390.81
2022-09-18T01:38:38.400Z,92391.09
2022-09-18T01:41:25.710Z,92380.88
2022-09-18T01:44:14.197Z,92375.50
2022-09-18T01:47:00.674Z,92386.50
2022-09-18T01:49:49.492Z,92393.22
2022-09-18T01:52:36.801Z,92394.59
2022-09-18T01:55:23.887Z,92389.50
2022-09-18T01:58:10.850Z,92396.78
2022-09-18T02:00:56.963Z,92407.56
2022-09-18T02:03:47.655Z,92413.34
2022-09-18T02:06:35.767Z,92413.34
2022-09-18T02:09:19.310Z,92408.09
2022-09-18T02:12:07.141Z,92400.94
2022-09-18T02:14:55.080Z,92408.75
2022-09-18T02:17:57.998Z,92406.06
2022-09-18T02:20:53.290Z,92409.00
2022-09-18T02:23:38.107Z,92405.63
2022-09-18T02:26:22.533Z,92401.06
2022-09-18T02:29:08.705Z,92405.34
2022-09-18T02:31:51.981Z,92406.44
2022-09-18T02:34:35.519Z,92402.94
2022-09-18T02:37:36.051Z,92412.13
2022-09-18T02:40:39.090Z,92408.88
2022-09-18T02:43:38.294Z,92403.78
2022-09-18T02:46:27.721Z,92403.50
2022-09-18T02:49:14.506Z,92396.78
2022-09-18T02:52:05.478Z,92392.75
2022-09-18T02:54:56.636Z,92412.38
2022-09-18T02:57:45.152Z,92410.00
2022-09-18T03:00:31.969Z,92411.59
2022-09-18T03:03:20.894Z,92411.72
2022-09-18T03:06:10.885Z,92399.00
2022-09-18T03:08:54.211Z,92410.97
2022-09-18T03:11:38.434Z,92418.63
2022-09-18T03:14:21.578Z,92415.94
2022-09-18T03:17:04.538Z,92419.31
2022-09-18T03:19:48.509Z,92414.84
2022-09-18T03:22:31.385Z,92424.13
2022-09-18T03:25:14.491Z,92421.31
2022-09-18T03:27:59.389Z,92425.31
2022-09-18T03:30:50.987Z,92427.59
2022-09-18T03:33:35.198Z,92424.09
2022-09-18T03:36:18.410Z,92421.81
2022-09-18T03:39:01.339Z,92425.59
2022-09-18T03:41:45.834Z,92427.22
2022-09-18T03:44:30.042Z,92425.44
2022-09-18T03:47:15.304Z,92425.16
2022-09-18T03:49:58.213Z,92426.78
2022-09-18T03:52:41.071Z,92426.78
2022-09-18T03:55:53.545Z,92424.22
2022-09-18T03:58:56.357Z,92432.84
2022-09-18T04:01:59.432Z,92430.44
2022-09-18T04:04:42.323Z,92427.88
2022-09-18T04:07:54.370Z,92440.66
2022-09-18T04:10:55.865Z,92434.03
2022-09-18T04:13:41.417Z,92432.28
2022-09-18T04:16:30.523Z,92438.84
2022-09-18T04:19:14.760Z,92430.91
2022-09-18T04:21:57.611Z,92431.84
2022-09-18T04:24:40.930Z,92440.03
2022-09-18T04:27:23.914Z,92434.66
2022-09-18T04:30:08.376Z,92437.09
2022-09-18T04:32:51.840Z,92436.53
2022-09-18T04:35:37.415Z,92433.69
2022-09-18T04:38:27.396Z,92436.78
2022-09-18T04:41:10.891Z,92439.22
2022-09-18T04:43:54.087Z,92436.50
2022-09-18T04:46:36.797Z,92440.53
2022-09-18T04:49:19.804Z,92430.44
2022-09-18T04:52:04.157Z,92442.94
2022-09-18T04:54:47.182Z,92442.44
2022-09-18T04:57:30.078Z,92439.06
2022-09-18T05:00:13.256Z,92437.03
2022-09-18T05:02:56.613Z,92438.63
2022-09-18T05:05:42.564Z,92434.88
2022-09-18T05:08:29.409Z,92432.19
2022-09-18T05:11:12.153Z,92429.38
2022-09-18T05:13:56.905Z,92431.53
2022-09-18T05:16:42.033Z,92445.00
2022-09-18T05:19:38.778Z,92434.59
2022-09-18T05:22:34.834Z,92434.75
2022-09-18T05:25:20.713Z,92436.22
2022-09-18T05:28:04.041Z,92427.88
2022-09-18T05:30:53.542Z,92438.63
2022-09-18T05:33:38.756Z,92432.72
2022-09-18T05:36:21.451Z,92433.50
2022-09-18T05:39:05.685Z,92443.47
2022-09-18T05:41:51.738Z,92439.28
2022-09-18T05:44:34.326Z,92441.84
2022-09-18T05:47:16.985Z,92436.59
2022-09-18T05:49:59.662Z,92441.72
2022-09-18T05:52:42.359Z,92444.00
2022-09-18T05:55:25.234Z,92439.94
2022-09-18T05:58:13.035Z,92446.56
2022-09-18T06:00:58.787Z,92443.84
2022-09-18T06:03:50.132Z,92450.13
2022-09-18T06:06:35.351Z,92455.13
2022-09-18T06:09:18.548Z,92455.13
2022-09-18T06:12:01.257Z,92453.50
2022-09-18T06:14:50.522Z,92450.09
2022-09-18T06:17:33.975Z,92452.19
2022-09-18T06:20:19.991Z,92452.19
2022-09-18T06:23:03.159Z,92458.94
2022-09-18T06:26:00.058Z,92456.47
2022-09-18T06:28:42.802Z,92450.41
2022-09-18T06:31:27.352Z,92462.31
2022-09-18T06:34:24.960Z,92460.28
2022-09-18T06:37:10.788Z,92464.16
2022-09-18T06:39:59.300Z,92464.03
2022-09-18T06:42:56.452Z,92458.91
2022-09-18T06:46:11.737Z,92467.88
2022-09-18T06:49:01.022Z,92468.09
2022-09-18T06:51:45.727Z,92467.91
2022-09-18T06:54:29.031Z,92459.41
2022-09-18T06:57:11.674Z,92455.78
2022-09-18T06:59:55.025Z,92464.47
2022-09-18T07:02:38.061Z,92460.44
2022-09-18T07:05:54.092Z,92465.63
2022-09-18T07:08:48.369Z,92466.22
2022-09-18T07:11:39.595Z,92479.09
2022-09-18T07:14:22.298Z,92475.78
2022-09-18T07:17:11.216Z,92470.53
2022-09-18T07:19:57.178Z,92481.41
2022-09-18T07:22:54.947Z,92484.78
2022-09-18T07:25:42.887Z,92479.38
2022-09-18T07:28:25.744Z,92476.44
2022-09-18T07:31:21.642Z,92481.94
2022-09-18T07:34:07.241Z,92473.72
2022-09-18T07:36:51.270Z,92479.72
2022-09-18T07:39:35.550Z,92483.97
2022-09-18T07:42:36.717Z,92487.97
2022-09-18T07:45:19.510Z,92498.81
2022-09-18T07:48:03.008Z,92492.66
2022-09-18T07:50:47.670Z,92496.63
2022-09-18T07:53:31.463Z,92501.69
2022-09-18T07:56:16.968Z,92513.69
2022-09-18T07:58:59.667Z,92509.53
2022-09-18T08:01:43.607Z,92515.75
2022-09-18T08:04:27.035Z,92512.06
2022-09-18T08:07:32.832Z,92511.00
2022-09-18T08:10:34.370Z,92514.72
2022-09-18T08:13:32.160Z,92514.56
2022-09-18T08:16:26.703Z,92521.16
2022-09-18T08:19:18.144Z,92521.00
2022-09-18T08:22:08.452Z,92530.88
2022-09-18T08:24:57.071Z,92521.50
2022-09-18T08:27:40.288Z,92521.53
2022-09-18T08:30:24.730Z,92518.09
2022-09-18T08:33:11.535Z,92529.03
2022-09-18T08:35:55.855Z,92515.75
2022-09-18T08:38:48.134Z,92516.63
2022-09-18T08:42:05.741Z,92520.06
2022-09-18T08:44:54.335Z,92518.53
2022-09-18T08:47:41.399Z,92520.38
2022-09-18T08:50:26.720Z,92523.91
2022-09-18T08:53:17.495Z,92519.72
2022-09-18T08:56:26.644Z,92526.00
2022-09-18T08:59:35.967Z,92527.72
2022-09-18T09:02:25.459Z,92526.91
2022-09-18T09:05:14.083Z,92530.41
2022-09-18T09:08:21.053Z,92527.72
2022-09-18T09:11:07.912Z,92522.84
2022-09-18T09:13:58.066Z,92528.25
2022-09-18T09:16:43.350Z,92533.50
2022-09-18T09:19:28.536Z,92538.47
2022-09-18T09:22:17.426Z,92525.81
2022-09-18T09:25:10.131Z,92533.81
2022-09-18T09:28:16.301Z,92538.25
2022-09-18T09:31:25.361Z,92535.69
2022-09-18T09:34:29.403Z,92541.50
2022-09-18T09:37:20.642Z,92541.34
2022-09-18T09:40:06.713Z,92537.66
2022-09-18T09:42:52.616Z,92532.38
2022-09-18T09:45:39.835Z,92524.22
2022-09-18T09:48:24.739Z,92537.59
2022-09-18T09:51:11.004Z,92531.81
2022-09-18T09:53:56.033Z,92540.97
2022-09-18T09:56:43.964Z,92542.28
2022-09-18T09:59:32.361Z,92551.41
2022-09-18T10:02:29.657Z,92544.69
2022-09-18T10:05:18.413Z,92534.53
2022-09-18T10:08:04.742Z,92541.59
2022-09-18T10:10:50.574Z,92532.69
2022-09-18T10:13:35.912Z,92541.03
2022-09-18T10:16:20.512Z,92552.50
2022-09-18T10:19:04.927Z,92540.44
2022-09-18T10:21:50.437Z,92542.53
2022-09-18T10:24:42.287Z,92543.31
2022-09-18T10:27:26.968Z,92554.19
2022-09-18T10:30:13.450Z,92549.41
2022-09-18T10:33:01.829Z,92555.47
2022-09-18T10:35:54.013Z,92562.03
2022-09-18T10:38:39.287Z,92561.06
2022-09-18T10:41:40.543Z,92555.72
2022-09-18T10:44:31.570Z,92553.84
2022-09-18T10:47:22.046Z,92552.38
2022-09-18T10:50:16.696Z,92559.25
2022-09-18T10:53:16.532Z,92555.72
2022-09-18T10:56:04.897Z,92560.72
2022-09-18T10:58:47.539Z,92556.41
2022-09-18T11:01:31.598Z,92563.69
2022-09-18T11:04:17.466Z,92565.50
2022-09-18T11:07:03.198Z,92557.00
2022-09-18T11:09:46.962Z,92553.50
2022-09-18T11:12:30.298Z,92559.66
2022-09-18T11:15:16.526Z,92554.34
2022-09-18T11:18:02.711Z,92556.16
2022-09-18T11:20:47.649Z,92555.00
2022-09-18T11:23:37.601Z,92548.16
2022-09-18T11:26:28.330Z,92538.25
2022-09-18T11:29:18.674Z,92536.38
2022-09-18T11:32:05.048Z,92546.16
2022-09-18T11:34:54.059Z,92536.91
2022-09-18T11:37:44.261Z,92542.28
2022-09-18T11:40:29.627Z,92532.50
2022-09-18T11:43:16.299Z,92523.50
2022-09-18T11:46:06.000Z,92520.63
2022-09-18T11:48:52.756Z,92532.81
2022-09-18T11:51:41.510Z,92529.44
2022-09-18T11:54:28.347Z,92533.09
2022-09-18T11:57:16.127Z,92526.94
2022-09-18T12:00:05.341Z,92531.78
2022-09-18T12:03:01.397Z,92537.03
2022-09-18T12:05:52.508Z,92532.06
2022-09-18T12:08:44.225Z,92530.75
2022-09-18T12:11:35.685Z,92531.22
2022-09-18T12:14:20.620Z,92540.06
2022-09-18T12:17:25.103Z,92535.91
2022-09-18T12:20:12.690Z,92537.06
2022-09-18T12:22:56.764Z,92537.88
2022-09-18T12:25:59.391Z,92541.56
2022-09-18T12:29:09.522Z,92536.44
2022-09-18T12:31:57.989Z,92538.88
2022-09-18T12:34:43.930Z,92527.63
2022-09-18T12:37:42.011Z,92523.59
2022-09-18T12:40:37.523Z,92524.09
2022-09-18T12:43:31.598Z,92522.34
2022-09-18T12:46:21.395Z,92519.47
2022-09-18T12:49:28.199Z,92533.09
2022-09-18T12:52:18.637Z,92515.56
2022-09-18T12:55:08.781Z,92519.34
2022-09-18T12:57:57.181Z,92516.59
2022-09-18T13:00:44.012Z,92509.38
2022-09-18T13:03:30.004Z,92520.13
2022-09-18T13:06:14.418Z,92518.69
2022-09-18T13:08:59.269Z,92517.56
2022-09-18T13:11:44.380Z,92516.47
2022-09-18T13:14:29.275Z,92515.69
2022-09-18T13:17:16.797Z,92517.81
2022-09-18T13:20:02.514Z,92518.78
2022-09-18T13:22:50.005Z,92516.72
2022-09-18T13:25:38.264Z,92510.81
2022-09-18T13:28:22.246Z,92511.91
2022-09-18T13:31:15.993Z,92514.66
2022-09-18T13:34:04.204Z,92509.19
2022-09-18T13:36:47.890Z,92509.84
2022-09-18T13:39:41.957Z,92507.25
2022-09-18T13:42:29.970Z,92503.22
2022-09-18T13:45:18.509Z,92499.53
2022-09-18T13:48:04.859Z,92499.06
2022-09-18T13:50:53.672Z,92493.25
2022-09-18T13:53:40.755Z,92511.41
2022-09-18T13:56:45.773Z,92494.34
2022-09-18T13:59:45.405Z,92493.69
2022-09-18T14:02:35.636Z,92498.63
2022-09-18T14:05:29.692Z,92494.75
2022-09-18T14:08:36.748Z,92492.66
2022-09-18T14:11:25.051Z,92503.41
2022-09-18T14:14:12.179Z,92499.56
2022-09-18T14:16:57.963Z,92490.56
2022-09-18T14:19:44.816Z,92481.25
2022-09-18T14:22:29.666Z,92488.31
2022-09-18T14:25:14.358Z,92485.75
2022-09-18T14:27:58.130Z,92485.25
2022-09-18T14:30:40.771Z,92489.75
2022-09-18T14:33:23.869Z,92493.78
2022-09-18T14:36:07.234Z,92487.69
2022-09-18T14:38:49.838Z,92492.47
2022-09-18T14:41:36.870Z,92495.41
2022-09-18T14:44:20.602Z,92491.06
2022-09-18T14:47:04.402Z,92489.91
2022-09-18T14:49:48.304Z,92485.72
2022-09-18T14:52:32.566Z,92479.09
2022-09-18T14:55:19.860Z,92481.81
2022-09-18T14:58:06.940Z,92468.25
2022-09-18T15:00:54.303Z,92474.16
2022-09-18T15:03:39.438Z,92475.78
2022-09-18T15:06:24.638Z,92474.34
2022-09-18T15:09:08.965Z,92477.25
2022-09-18T15:12:02.233Z,92478.69
2022-09-18T15:14:47.819Z,92468.44
2022-09-18T15:17:32.440Z,92470.16
2022-09-18T15:20:16.114Z,92467.22
2022-09-18T15:22:58.823Z,92473.97
2022-09-18T15:25:44.213Z,92474.91
2022-09-18T15:28:27.962Z,92473.16
2022-09-18T15:31:13.110Z,92467.38
2022-09-18T15:33:57.450Z,92469.78
2022-09-18T15:36:41.141Z,92469.78
2022-09-18T15:39:29.681Z,92468.50
2022-09-18T15:42:19.250Z,92461.59
2022-09-18T15:45:11.112Z,92462.19
2022-09-18T15:47:55.646Z,92461.25
2022-09-18T15:50:39.757Z,92456.75
2022-09-18T15:53:29.474Z,92454.63
2022-09-18T15:56:20.918Z,92455.44
2022-09-18T15:59:06.262Z,92459.09
2022-09-18T16:01:49.144Z,92453.81
2022-09-18T16:04:34.946Z,92461.03
2022-09-18T16:07:21.496Z,92451.72
2022-09-18T16:10:04.761Z,92440.31
2022-09-18T16:12:47.675Z,92451.34
2022-09-18T16:15:30.671Z,92442.41
2022-09-18T16:18:23.195Z,92447.91
2022-09-18T16:21:08.870Z,92456.47
2022-09-18T16:23:53.622Z,92445.28
2022-09-18T16:26:37.443Z,92445.63
2022-09-18T16:29:22.130Z,92453.91
2022-09-18T16:32:09.585Z,92451.53
2022-09-18T16:34:52.279Z,92455.28
2022-09-18T16:37:38.731Z,92458.56
2022-09-18T16:40:27.181Z,92448.44
2022-09-18T16:43:10.801Z,92454.47
2022-09-18T16:45:54.225Z,92450.38
2022-09-18T16:48:37.155Z,92444.91
2022-09-18T16:51:19.789Z,92441.25
2022-09-18T16:54:03.872Z,92439.16
2022-09-18T16:56:51.586Z,92430.94
2022-09-18T16:59:36.051Z,92439.09
2022-09-18T17:02:23.322Z,92437.50
2022-09-18T17:05:08.971Z,92431.22
2022-09-18T17:07:51.715Z,92434.94
2022-09-18T17:10:36.169Z,92439.19
2022-09-18T17:13:18.817Z,92437.09
2022-09-18T17:16:02.041Z,92430.66
2022-09-18T17:18:45.073Z,92428.06
2022-09-18T17:21:27.774Z,92428.81
2022-09-18T17:24:10.833Z,92447.53
2022-09-18T17:26:55.011Z,92433.59
2022-09-18T17:29:37.706Z,92440.34
2022-09-18T17:32:20.354Z,92451.69
2022-09-18T17:35:03.066Z,92438.72
2022-09-18T17:37:45.928Z,92448.19
2022-09-18T17:40:28.642Z,92445.03
2022-09-18T17:43:15.726Z,92442.16
2022-09-18T17:45:59.164Z,92441.34
2022-09-18T17:48:41.880Z,92452.28
2022-09-18T17:51:28.490Z,92446.84
2022-09-18T17:54:12.218Z,92438.63
2022-09-18T17:56:55.711Z,92442.22
2022-09-18T17:59:40.198Z,92443.00
2022-09-18T18:02:22.987Z,92441.41
2022-09-18T18:05:06.100Z,92451.53
2022-09-18T18:07:48.821Z,92460.81
2022-09-18T18:10:31.555Z,92454.56
2022-09-18T18:13:17.947Z,92453.78
2022-09-18T18:16:07.478Z,92457.78
2022-09-18T18:18:50.229Z,92459.41
2022-09-18T18:21:33.959Z,92463.41
2022-09-18T18:24:18.379Z,92461.50
2022-09-18T18:27:02.116Z,92460.41
2022-09-18T18:29:45.500Z,92461.88
2022-09-18T18:32:29.635Z,92463.63
2022-09-18T18:35:12.409Z,92458.81
2022-09-18T18:37:55.113Z,92458.00
2022-09-18T18:40:39.568Z,92447.91
2022-09-18T18:43:23.091Z,92452.22
2022-09-18T18:46:08.145Z,92445.16
2022-09-18T18:49:00.017Z,92443.53
2022-09-18T18:51:45.939Z,92452.66
2022-09-18T18:54:28.937Z,92443.22
2022-09-18T18:57:11.668Z,92445.28
2022-09-18T18:59:57.221Z,92443.53
2022-09-18T19:02:40.007Z,92441.09
2022-09-18T19:05:30.336Z,92443.16
2022-09-18T19:08:14.189Z,92434.81
2022-09-18T19:10:57.598Z,92441.72
2022-09-18T19:13:43.113Z,92447.34
2022-09-18T19:16:27.166Z,92435.31
2022-09-18T19:19:09.924Z,92439.66
2022-09-18T19:21:54.329Z,92443.97
2022-09-18T19:24:37.047Z,92449.09
2022-09-18T19:27:19.983Z,92451.53
2022-09-18T19:30:02.941Z,92453.25
2022-09-18T19:32:45.668Z,92451.53
2022-09-18T19:35:28.585Z,92449.09
2022-09-18T19:38:20.317Z,92450.38
2022-09-18T19:41:05.863Z,92451.44
2022-09-18T19:43:48.717Z,92453.22
2022-09-18T19:46:32.735Z,92449.22
2022-09-18T19:49:17.377Z,92447.88
2022-09-18T19:52:00.434Z,92443.06
2022-09-18T19:54:44.401Z,92443.06
2022-09-18T19:57:27.488Z,92439.06
2022-09-18T20:00:10.982Z,92439.84
2022-09-18T20:02:58.543Z,92440.00
2022-09-18T20:05:41.542Z,92444.19
2022-09-18T20:08:24.820Z,92438.53
2022-09-18T20:11:09.018Z,92439.13
2022-09-18T20:13:51.784Z,92431.75
2022-09-18T20:16:34.451Z,92430.63
2022-09-18T20:19:17.204Z,92422.94
2022-09-18T20:22:03.039Z,92419.72
2022-09-18T20:24:46.637Z,92423.09
2022-09-18T20:27:35.912Z,92411.25
2022-09-18T20:30:19.508Z,92413.66
2022-09-18T20:33:02.263Z,92402.44
2022-09-18T20:35:46.308Z,92395.88
2022-09-18T20:38:30.613Z,92402.41
2022-09-18T20:41:15.189Z,92389.63
2022-09-18T20:44:03.004Z,92387.78
2022-09-18T20:46:45.696Z,92388.88
2022-09-18T20:49:28.382Z,92380.09
2022-09-18T20:52:14.462Z,92375.78
2022-09-18T20:54:57.656Z,92369.88
2022-09-18T20:57:40.911Z,92370.53
2022-09-18T21:00:25.633Z,92377.09
2022-09-18T21:03:08.668Z,92361.06
2022-09-18T21:06:07.459Z,92358.78
2022-09-18T21:08:54.774Z,92350.16
2022-09-18T21:11:38.547Z,92353.84
2022-09-18T21:14:21.310Z,92346.94
2022-09-18T21:17:10.683Z,92347.09
2022-09-18T21:19:53.317Z,92333.28
2022-09-18T21:22:55.942Z,92338.94
2022-09-18T21:25:38.685Z,92337.91
2022-09-18T21:28:21.372Z,92331.19
2022-09-18T21:31:08.154Z,92331.03
2022-09-18T21:33:53.235Z,92330.88
2022-09-18T21:36:38.600Z,92330.72
2022-09-18T21:39:21.282Z,92334.41
2022-09-18T21:42:07.297Z,92315.69
2022-09-18T21:44:49.924Z,92322.53
2022-09-18T21:47:32.693Z,92325.09
2022-09-18T21:50:16.976Z,92326.06
2022-09-18T21:52:59.576Z,92325.41
2022-09-18T21:55:42.178Z,92343.28
2022-09-18T21:58:25.958Z,92331.22
2022-09-18T22:01:09.585Z,92329.53
2022-09-18T22:03:54.687Z,92310.59
2022-09-18T22:06:40.904Z,92320.81
2022-09-18T22:09:24.655Z,92324.78
2022-09-18T22:12:07.785Z,92309.72
2022-09-18T22:14:50.512Z,92315.88
2022-09-18T22:17:33.220Z,92318.38
2022-09-18T22:20:17.573Z,92308.59
2022-09-18T22:23:01.543Z,92306.97
2022-09-18T22:25:44.340Z,92314.94
2022-09-18T22:28:26.919Z,92316.84
2022-09-18T22:31:10.207Z,92313.13
2022-09-18T22:33:54.464Z,92319.03
2022-09-18T22:36:37.062Z,92313.13
2022-09-18T22:39:21.687Z,92308.78
2022-09-18T22:42:04.452Z,92317.94
2022-09-18T22:44:47.046Z,92304.34
2022-09-18T22:47:29.896Z,92302.72
2022-09-18T22:50:12.506Z,92304.34
2022-09-18T22:52:55.088Z,92301.66
2022-09-18T22:57:37.131Z,92296.59
2022-09-18T23:00:20.054Z,92287.81
2022-09-18T23:03:02.968Z,92288.13
2022-09-18T23:05:47.043Z,92292.94
2022-09-18T23:08:31.926Z,92282.41
2022-09-18T23:11:16.337Z,92278.09
2022-09-18T23:14:02.070Z,92282.41
2022-09-18T23:16:45.247Z,92274.75
2022-09-18T23:19:29.811Z,92271.81
2022-09-18T23:22:12.586Z,92274.53
2022-09-18T23:24:55.454Z,92283.28
2022-09-18T23:27:38.454Z,92292.06
2022-09-18T23:30:22.553Z,92301.63
2022-09-18T23:33:05.538Z,92298.47
2022-09-18T23:35:48.431Z,92292.41
2022-09-18T23:38:31.232Z,92306.41
2022-09-18T23:41:16.333Z,92303.91
2022-09-18T23:43:59.105Z,92292.25
2022-09-18T23:46:44.342Z,92296.97
2022-09-18T23:49:28.083Z,92300.19
2022-09-18T23:52:10.907Z,92298.63
2022-09-18T23:54:53.766Z,92295.06
2022-09-18T23:57:36.927Z,92288.34
